Flight Track Log - Related Links

Times and Time Zones

All times are in EDT time to prevent confusion due to time zone crossing. See the CHQ6101 flight status page for this flight to view local times or setup timezone preferences in your user account.

Time Position Orientation Groundspeed Altitude Reporting Facility
EDT Latitude Longitude Course Direction KTS MPH feet Rate Location/Type
Tue 02:48:51 PM 40.7667 -73.8500 27° Northeast 162 186 1,300  Level New York TRACON
Tue 02:49:51 PM 40.7500 -73.7833 108° East 230 265 3,300 1,887 Climbing New York TRACON
Tue 02:51:30 PM 40.8253 -73.6953 42° Northeast 263 303 6,300 2,138 Climbing Boston Center
Tue 02:52:00 PM 41.1449 -73.5733 33° Northeast  Level FlightAware Approximate
Tue 02:52:31 PM 40.9144 -73.6425 24° Northeast 287 330 9,000  Level Boston Center
Tue 02:53:00 PM 41.2367 -73.4929 33° Northeast  Level FlightAware Approximate
Tue 02:53:33 PM 40.9928 -73.5981 23° Northeast 300 345 10,800  Level Boston Center
Tue 02:54:00 PM 41.3330 -73.4225 27° Northeast  Level FlightAware Approximate
Tue 02:54:34 PM 41.0778 -73.5483 24° Northeast 328 377 12,700  Level Boston Center
Tue 02:55:35 PM 41.1750 -73.4922 23° Northeast 352 405 13,900 1,180 Climbing Boston Center
Tue 02:56:36 PM 41.2719 -73.4364 23° Northeast 372 428 15,100 1,268 Climbing Boston Center
Tue 02:57:38 PM 41.3681 -73.3792 24° Northeast 378 435 16,500 1,171 Climbing Boston Center
Tue 02:58:39 PM 41.4719 -73.3172 24° Northeast 386 444 17,500 1,230 Climbing Boston Center
Tue 02:59:40 PM 41.5553 -73.2142 43° Northeast 408 470 19,000 1,317 Climbing Boston Center
Tue 03:00:42 PM 41.6392 -73.1283 37° Northeast 407 468 20,200 1,268 Climbing Boston Center
Tue 03:01:43 PM 41.7489 -73.1250 North 397 457 21,600 1,426 Climbing Boston Center
Tue 03:02:44 PM 41.8553 -73.1433 353° North 389 448 23,100 1,475 Climbing Boston Center
Tue 03:03:45 PM 41.9628 -73.1625 352° North 388 447 24,600 1,317 Climbing Boston Center
Tue 03:04:47 PM 42.0703 -73.1814 353° North 388 447 25,800 1,171 Climbing Boston Center
Tue 03:05:48 PM 42.2028 -73.2014 354° North 395 455 27,000 1,131 Climbing Boston Center
Tue 03:06:49 PM 42.3056 -73.1328 26° Northeast 424 488 28,100 1,024 Climbing Boston Center
Tue 03:07:51 PM 42.3819 -73.0103 50° Northeast 429 494 29,100 976 Climbing Boston Center
Tue 03:08:52 PM 42.4575 -72.8881 50° Northeast 429 494 30,100 934 Climbing Boston Center
Tue 03:09:53 PM 42.5369 -72.7603 50° Northeast 437 503 31,000 443 Climbing Boston Center
Tue 03:10:54 PM 42.6258 -72.6167 50° Northeast 459 528 31,000  Level Boston Center
Tue 03:11:56 PM 42.7128 -72.4750 50° Northeast 484 557 31,000  Level Boston Center
Tue 03:12:57 PM 42.8019 -72.3297 50° Northeast 494 568 31,000  Level Boston Center
Tue 03:13:58 PM 42.8950 -72.1733 51° Northeast 502 578 31,000  Level Boston Center
Tue 03:15:00 PM 42.9856 -72.0256 50° Northeast 504 580 31,000  Level Boston Center
Tue 03:16:01 PM 43.0753 -71.8764 51° Northeast 507 583 31,000  Level Boston Center
Tue 03:17:02 PM 43.1633 -71.7278 51° Northeast 506 582 31,000  Level Boston Center
Tue 03:18:03 PM 43.2528 -71.5778 51° Northeast 506 582 31,000  Level Boston Center
Tue 03:19:05 PM 43.3406 -71.4267 51° Northeast 507 583 31,000  Level Boston Center
Tue 03:20:06 PM 43.4300 -71.2772 50° Northeast 507 583 31,000  Level Boston Center
Tue 03:21:07 PM 43.5347 -71.0956 51° Northeast 507 583 31,000 -98 Level Boston Center
Tue 03:22:08 PM 43.6228 -70.9453 51° Northeast 507 583 30,800 -787 Descending Boston Center
Tue 03:23:09 PM 43.7150 -70.7833 52° Northeast 504 580 29,400 -1,610 Descending Boston Center
Tue 03:24:11 PM 43.8025 -70.6342 51° Northeast 500 575 27,500 -2,195 Descending Boston Center
Tue 03:25:12 PM 43.8858 -70.4892 51° Northeast 483 556 24,900 -2,656 Descending Boston Center
Tue 03:26:13 PM 43.9667 -70.3486 51° Northeast 467 537 22,100 -2,754 Descending Boston Center
Tue 03:27:14 PM 44.0433 -70.2097 52° Northeast 459 528 19,300 -2,951 Descending Boston Center
Tue 03:28:15 PM 44.1181 -70.0797 51° Northeast 421 484 16,100 -2,927 Descending Boston Center
Tue 03:29:17 PM 44.1864 -69.9594 52° Northeast 400 460 13,300 -2,439 Descending Boston Center
Tue 03:30:18 PM 44.2586 -69.8297 52° Northeast 396 456 11,100 -1,131 Descending Boston Center
Tue 03:31:19 PM 44.3269 -69.7072 52° Northeast 401 461 11,000 -49 Descending Boston Center
Tue 03:32:20 PM 44.3867 -69.5994 52° Northeast 390 449 11,000  Level Boston Center
Tue 03:33:21 PM 44.4617 -69.4900 46° Northeast 391 450 11,000 -537 Level Boston Center
Tue 03:34:23 PM 44.5314 -69.4028 42° Northeast 350 403 9,900 -1,512 Descending Boston Center
Tue 03:35:24 PM 44.6061 -69.3069 42° Northeast 312 359 7,900 -1,770 Descending Boston Center
Tue 03:36:25 PM 44.6644 -69.2314 43° Northeast 295 339 6,300 -1,525 Descending Boston Center
Tue 03:37:26 PM 44.7206 -69.1572 43° Northeast 284 327 4,800 -1,377 Descending Boston Center
Tue 03:38:27 PM 44.7753 -69.0850 43° Northeast 276 318 3,500 -1,122 Descending Boston Center
Tue 03:39:29 PM 44.8269 -69.0167 43° Northeast 259 298 2,500 -829 Descending Boston Center
Tue 03:40:30 PM 44.8517 -68.9511 62° Northeast 211 243 1,800 -689 Descending Boston Center
Tue 03:41:31 PM 44.8478 -68.8944 96° East 168 193 1,100 -689 Descending Boston Center
Tue 03:42:32 PM 44.8228 -68.8508 129° Southeast 151 174 400 -439 Descending Boston Center
Tue 03:43:34 PM 44.7942 -68.8128 137° Southeast 150 173 200 -194 Descending Boston Center

Login

Don't have an account? Register now (free) for customized features, flight alerts, and more!